Latest Coastal Weather Observations for Low Head

IDV60701

Issued at 4:21 am EDT Saturday 25 February 2017 (issued every 10 minutes, with the page automatically refreshed every 10 minutes)

About coastal observations | Map of coastal stations | Coastal observations for VIC | Marine services | Other Formats
Station Details ID: 091293 Name: LOW HEAD Lat: -41.05 Lon: 146.79 Height: 3.0 m
Data from the previous 72 hours. | See also: Recent months at Low Head
Date/Time
EDT
Temp
°C
Wind Pressure Rain since
9am
mm
Weather Cloud Vis
km
Sea
Height
m
Swell
Dir  Spd
kts
Gust
kts
hPa Trend Height
m
Period
s
Dir
25/04:00am 14.9 SSE 9 12 1023.6 - 0.0 - - - - - - -
25/03:30am 15.0 SE 9 12 1023.6 - 0.0 - - - - - - -
25/03:00am 15.2 SE 8 12 1023.5 - 0.0 - - - - - - -
25/02:30am 15.2 SSE 9 13 1023.5 - 0.0 - - - - - - -
25/02:00am 15.3 SSE 9 13 1023.5 - 0.0 - - - - - - -
25/01:30am 15.3 SSE 8 12 1023.6 - 0.0 - - - - - - -
25/01:00am 15.7 SSE 9 12 1023.4 - 0.0 - - - - - - -
25/12:30am 15.7 SSE 8 10 1023.2 - 0.0 - - - - - - -
25/12:00am 16.1 SSE 7 11 1023.1 - 0.0 - - - - - - -
 
Date/Time
EDT
Temp
°C
Wind Pressure Rain since
9am
mm
Weather Cloud Vis
km
Sea
Height
m
Swell
Dir  Spd
kts
Gust
kts
hPa Trend Height
m
Period
s
Dir
24/11:30pm 16.2 SE 7 9 1023.0 - 0.0 - - - - - - -
24/11:00pm 15.9 SE 7 11 1022.7 - 0.0 - - - - - - -
24/10:30pm 16.7 SSE 13 18 1022.6 - 0.0 - - - - - - -
24/10:00pm 16.9 S 9 11 1022.4 - 0.0 - - - - - - -
24/09:30pm 17.7 SSW 7 9 1022.0 - 0.0 - - - - - - -
24/09:00pm 18.0 SW 8 9 1021.4 - 0.0 - - - - - - -
24/08:30pm 18.3 WSW 9 12 1021.0 - 0.0 - - - - - - -
24/08:00pm 18.9 SW 13 15 1020.6 - 0.0 - - - - - - -
24/07:30pm 18.6 WSW 22 25 1020.1 - 0.0 - - - - - - -
24/07:00pm 19.6 W 21 24 1019.9 - 0.0 - - - - - - -
24/06:30pm 20.1 W 19 23 1019.6 - 0.0 - - - - - - -
24/06:00pm 19.9 W 22 26 1019.4 - 0.0 - - - - - - -
24/05:30pm 19.7 WNW 22 27 1019.1 - 0.0 - - - - - - -
24/05:00pm 19.8 W 24 28 1019.1 - 0.0 - - - - - - -
24/04:30pm 19.7 W 23 26 1019.0 - 0.0 - - - - - - -
24/04:00pm 19.8 W 21 26 1019.0 - 0.0 - - - - - - -
24/03:30pm 19.9 W 23 26 1019.3 - 0.0 - - - - - - -
24/03:00pm 20.0 WNW 23 27 1019.6 - 0.0 - - - - - - -
24/02:30pm 20.1 W 21 26 1019.4 - 0.0 - - - - - - -
24/02:00pm 20.0 W 21 24 1019.5 - 0.0 - - - - - - -
24/01:30pm 19.6 W 19 22 1019.7 - 0.0 - - - - - - -
24/01:00pm 19.2 WNW 18 21 1019.8 - 0.0 - - - - - - -
24/12:30pm 19.2 WNW 16 19 1020.1 - 0.0 - - - - - - -
24/12:00pm 18.3 W 15 17 1020.5 - 0.0 - - - - - - -
24/11:30am 17.2 W 13 15 1020.6 - 0.0 - - - - - - -
24/11:00am 16.6 W 13 16 1020.8 - 0.0 - - - - - - -
24/10:30am 16.1 W 9 11 1020.8 - 0.0 - - - - - - -
24/10:00am 16.2 WNW 6 8 1020.7 - 0.0 - - - - - - -
24/09:30am 14.9 SW 3 4 1020.5 - 0.0 - - - - - - -
24/09:00am 14.2 S 6 6 1020.2 - 0.0 - - - - - - -
24/08:30am 13.4 SSE 7 8 1019.9 - 0.0 - - - - - - -
24/08:00am 13.2 S 9 10 1019.7 - 0.0 - - - - - - -
24/07:30am 12.6 S 10 11 1019.5 - 0.0 - - - - - - -
24/07:00am 11.9 SSE 8 9 1019.0 - 0.0 - - - - - - -
24/06:30am 12.1 SE 7 8 1018.7 - 0.0 - - - - - - -
24/06:00am 13.6 SSE 3 6 1018.3 - 0.0 - - - - - - -
24/05:30am 14.6 WSW 6 9 1018.2 - 0.0 - - - - - - -
24/05:00am 14.9 W 10 13 1018.1 - 0.0 - - - - - - -
24/04:30am 15.0 W 16 19 1018.1 - 0.0 - - - - - - -
24/04:00am 15.2 WNW 18 20 1018.1 - 0.0 - - - - - - -
24/03:30am 15.4 WNW 15 18 1017.8 - 0.0 - - - - - - -
24/03:00am 15.5 W 17 19 1018.0 - 0.0 - - - - - - -
24/02:30am 15.7 W 18 21 1018.2 - 0.0 - - - - - - -
24/02:00am 16.0 W 17 20 1018.4 - 0.0 - - - - - - -
24/01:30am 16.5 W 20 23 1018.4 - 0.0 - - - - - - -
24/01:00am 16.5 W 23 26 1018.2 - 0.0 - - - - - - -
24/12:30am 16.7 W 24 28 1018.1 - 0.0 - - - - - - -
24/12:00am 17.0 W 23 27 1018.1 - 0.0 - - - - - - -
 
Date/Time
EDT
Temp
°C
Wind Pressure Rain since
9am
mm
Weather Cloud Vis
km
Sea
Height
m
Swell
Dir  Spd
kts
Gust
kts
hPa Trend Height
m
Period
s
Dir
23/11:30pm 17.3 WNW 21 25 1018.0 - 0.0 - - - - - - -
23/11:00pm 17.5 W 21 24 1018.0 - 0.0 - - - - - - -
23/10:30pm 17.6 W 22 25 1017.8 - 0.0 - - - - - - -
23/10:00pm 17.9 W 22 25 1017.6 - 0.0 - - - - - - -
23/09:30pm 17.9 WNW 21 25 1017.4 - 0.0 - - - - - - -
23/09:00pm 17.9 WNW 22 26 1016.9 - 0.0 - - - - - - -
23/08:30pm 17.9 WNW 22 26 1016.4 - 0.0 - - - - - - -
23/08:00pm 17.9 WNW 22 27 1015.9 - 0.0 - - - - - - -
23/07:30pm 18.3 WNW 21 25 1015.6 - 0.0 - - - - - - -
23/07:00pm 18.5 NW 22 26 1015.4 - 0.0 - - - - - - -
23/06:30pm 18.9 NW 21 25 1015.1 - 0.0 - - - - - - -
23/06:00pm 19.2 NW 20 25 1014.8 - 0.0 - - - - - - -
23/05:30pm 19.3 NW 21 25 1014.7 - 0.0 - - - - - - -
23/05:00pm 19.4 NW 21 25 1014.4 - 0.0 - - - - - - -
23/04:30pm 19.5 NW 21 25 1014.2 - 0.0 - - - - - - -
23/04:00pm 19.5 NW 22 27 1014.2 - 0.0 - - - - - - -
23/03:30pm 19.5 NW 23 27 1014.1 - 0.0 - - - - - - -
23/03:00pm 19.8 NW 21 25 1014.2 - 0.0 - - - - - - -
23/02:30pm 20.1 NW 20 25 1014.4 - 0.0 - - - - - - -
23/02:00pm 20.1 NW 21 25 1014.4 - 0.0 - - - - - - -
23/01:30pm 19.9 WNW 20 24 1014.5 - 0.0 - - - - - - -
23/01:00pm 20.0 NW 18 22 1014.4 - 0.0 - - - - - - -
23/12:30pm 19.8 WNW 18 21 1014.3 - 0.0 - - - - - - -
23/12:00pm 19.7 NW 17 19 1014.0 - 0.0 - - - - - - -
23/11:30am 19.3 WNW 17 19 1013.9 - 0.0 - - - - - - -
23/11:00am 19.0 WNW 21 25 1013.7 - 0.0 - - - - - - -
23/10:30am 18.7 WNW 21 25 1013.4 - 0.0 - - - - - - -
23/10:00am 18.9 WNW 18 21 1013.3 - 0.0 - - - - - - -
23/09:30am 18.5 WNW 18 22 1012.9 - 0.0 - - - - - - -
23/09:00am 18.2 WNW 18 22 1012.5 - 0.0 - - - - - - -
23/08:30am 17.9 WNW 19 23 1012.2 - 0.0 - - - - - - -
23/08:00am 17.7 WNW 19 24 1011.8 - 0.0 - - - - - - -
23/07:30am 17.7 WNW 21 25 1011.2 - 0.0 - - - - - - -
23/07:00am 17.7 NW 19 23 1010.8 - 0.0 - - - - - - -
23/06:30am 17.7 NW 18 22 1010.4 - 0.0 - - - - - - -
23/06:00am 17.7 WNW 17 19 1010.0 - 0.0 - - - - - - -
23/05:30am 17.8 WNW 18 22 1009.6 - 0.0 - - - - - - -
23/05:00am 17.9 WNW 19 23 1009.2 - 0.0 - - - - - - -
23/04:30am 17.9 NW 17 21 1008.9 - 0.0 - - - - - - -
23/04:00am 18.1 NNE 12 15 1008.5 - 0.0 - - - - - - -
23/03:30am 18.2 NE 10 13 1008.3 - 0.0 - - - - - - -
23/03:00am 18.4 ENE 13 15 1007.9 - 0.0 - - - - - - -
23/02:30am 18.5 ENE 13 16 1008.2 - 0.0 - - - - - - -
23/02:00am 18.6 N 11 15 1009.7 - 0.0 - - - - - - -
23/01:30am 19.4 W 8 15 1009.8 - 0.0 - - - - - - -
23/01:00am 19.1 ESE 10 16 1008.2 - 0.0 - - - - - - -
23/12:30am 18.9 E 14 17 1008.6 - 0.0 - - - - - - -
23/12:00am 18.9 E 15 18 1009.5 - 0.0 - - - - - - -
 
Date/Time
EDT
Temp
°C
Wind Pressure Rain since
9am
mm
Weather Cloud Vis
km
Sea
Height
m
Swell
Dir  Spd
kts
Gust
kts
hPa Trend Height
m
Period
s
Dir
22/11:30pm 18.8 E 13 16 1009.9 - 0.0 - - - - - - -
22/11:00pm 18.5 E 8 11 1010.5 - 0.0 - - - - - - -
22/10:30pm 18.2 E 7 10 1010.8 - 0.0 - - - - - - -
22/10:00pm 18.1 ESE 8 10 1010.9 - 0.0 - - - - - - -
22/09:30pm 18.4 ESE 7 9 1011.3 - 0.0 - - - - - - -
22/09:00pm 19.0 E 11 13 1011.4 - 0.0 - - - - - - -
22/08:30pm 19.2 E 14 15 1010.9 - 0.0 - - - - - - -
22/08:00pm 19.5 ENE 13 16 1011.4 - 0.0 - - - - - - -
22/07:30pm 19.4 ENE 16 18 1011.2 - 0.0 - - - - - - -
22/07:00pm 19.1 ENE 14 16 1011.9 - 0.0 - - - - - - -
22/06:30pm 19.3 NE 14 16 1012.6 - 0.0 - - - - - - -
22/06:00pm 19.6 NE 14 15 1012.4 - 0.0 - - - - - - -
22/05:30pm 19.9 ENE 17 19 1012.1 - 0.0 - - - - - - -
22/05:00pm 19.5 ENE 17 18 1012.6 - 0.0 - - - - - - -
22/04:30pm 19.6 ENE 18 19 1013.1 - 0.0 - - - - - - -
22/04:00pm 19.9 ENE 17 19 1013.6 - 0.0 - - - - - - -
22/03:30pm 20.0 ENE 18 21 1014.0 - 0.0 - - - - - - -
22/03:00pm 19.7 ENE 15 18 1014.6 - 0.0 - - - - - - -
22/02:30pm 19.5 ENE 15 17 1015.3 - 0.0 - - - - - - -
22/02:00pm 19.6 NE 13 15 1015.8 - 0.0 - - - - - - -
22/01:30pm 19.6 NE 11 13 1016.2 - 0.0 - - - - - - -
22/01:00pm 19.4 NE 11 12 1016.6 - 0.0 - - - - - - -
22/12:30pm 19.0 ENE 12 14 1016.8 - 0.0 - - - - - - -
22/12:00pm 18.6 NE 13 15 1017.1 - 0.0 - - - - - - -
22/11:30am 18.1 ENE 13 14 1017.4 - 0.0 - - - - - - -
22/11:00am 18.1 ENE 11 13 1017.7 - 0.0 - - - - - - -
22/10:30am 17.6 ENE 11 12 1017.9 - 0.0 - - - - - - -
22/10:00am 16.5 SSE 6 8 1018.3 - 0.0 - - - - - - -
22/09:30am 15.4 SSE 6 7 1018.5 - 0.0 - - - - - - -
22/09:00am 14.6 SSE 7 8 1018.5 - 0.0 - - - - - - -
22/08:30am 14.2 SSE 5 8 1018.5 - 0.0 - - - - - - -
22/08:00am 13.8 SSE 7 9 1018.3 - 0.0 - - - - - - -
22/07:30am 13.3 SE 6 7 1018.1 - 0.0 - - - - - - -
22/07:00am 13.2 E 8 9 1017.9 - 0.0 - - - - - - -
22/06:30am 12.9 E 7 9 1018.0 - 0.0 - - - - - - -
22/06:00am 13.1 E 8 9 1017.8 - 0.0 - - - - - - -
22/05:30am 13.2 E 9 10 1017.7 - 0.0 - - - - - - -
22/05:00am 13.3 E 9 11 1017.8 - 0.0 - - - - - - -
22/04:30am 13.0 E 9 10 1018.1 - 0.0 - - - - - - -

Other Formats:

Comma delimited format used in spreadsheet applications
http://www.bom.gov.au/fwo/IDV60701/IDV60701.95964.axf

JavaScript Object Notation format (JSON) in row-major order
http://www.bom.gov.au/fwo/IDV60701/IDV60701.95964.json